sensor_id;sensor_type;location;lat;lon;timestamp;temperature;humidity
49052;DHT22;34866;48.670;18.260;2023-03-12T00:01:38;39.30;2201.60
49052;DHT22;34866;48.670;18.260;2023-03-12T00:04:04;39.30;2201.60
49052;DHT22;34866;48.670;18.260;2023-03-12T00:06:30;39.30;2201.60
49052;DHT22;34866;48.670;18.260;2023-03-12T00:08:57;39.30;2201.60
49052;DHT22;34866;48.670;18.260;2023-03-12T00:11:22;39.20;2201.60
49052;DHT22;34866;48.670;18.260;2023-03-12T00:13:53;39.30;2201.60
49052;DHT22;34866;48.670;18.260;2023-03-12T00:16:19;64.00;2201.60
49052;DHT22;34866;48.670;18.260;2023-03-12T00:18:50;64.00;2201.60
49052;DHT22;34866;48.670;18.260;2023-03-12T00:21:17;64.00;2201.60
49052;DHT22;34866;48.670;18.260;2023-03-12T00:23:43;64.00;2201.60
49052;DHT22;34866;48.670;18.260;2023-03-12T00:26:12;64.20;2201.60
49052;DHT22;34866;48.670;18.260;2023-03-12T00:28:38;64.20;2201.60
49052;DHT22;34866;48.670;18.260;2023-03-12T00:33:42;64.30;2201.60
49052;DHT22;34866;48.670;18.260;2023-03-12T00:36:08;39.10;2201.60
49052;DHT22;34866;48.670;18.260;2023-03-12T00:38:34;64.20;2201.60
49052;DHT22;34866;48.670;18.260;2023-03-12T00:41:00;64.20;2201.60
49052;DHT22;34866;48.670;18.260;2023-03-12T00:43:25;64.20;2201.60
49052;DHT22;34866;48.670;18.260;2023-03-12T00:45:51;64.20;2201.60
49052;DHT22;34866;48.670;18.260;2023-03-12T00:48:17;64.30;2201.60
49052;DHT22;34866;48.670;18.260;2023-03-12T00:50:42;64.30;2201.60
49052;DHT22;34866;48.670;18.260;2023-03-12T00:53:15;64.20;2201.60
49052;DHT22;34866;48.670;18.260;2023-03-12T00:55:42;64.10;2201.60
49052;DHT22;34866;48.670;18.260;2023-03-12T00:58:08;64.10;2201.60
49052;DHT22;34866;48.670;18.260;2023-03-12T01:00:40;64.10;2201.60
49052;DHT22;34866;48.670;18.260;2023-03-12T01:03:06;64.20;2201.60
49052;DHT22;34866;48.670;18.260;2023-03-12T01:05:32;64.20;2201.60
49052;DHT22;34866;48.670;18.260;2023-03-12T01:08:03;64.30;2201.60
49052;DHT22;34866;48.670;18.260;2023-03-12T01:10:28;64.30;2201.60
49052;DHT22;34866;48.670;18.260;2023-03-12T01:12:54;64.40;2201.60
49052;DHT22;34866;48.670;18.260;2023-03-12T01:15:20;64.40;2201.60
49052;DHT22;34866;48.670;18.260;2023-03-12T01:17:46;64.30;2201.60
49052;DHT22;34866;48.670;18.260;2023-03-12T01:20:12;64.40;2201.60
49052;DHT22;34866;48.670;18.260;2023-03-12T01:22:38;64.40;2201.60
49052;DHT22;34866;48.670;18.260;2023-03-12T01:25:05;64.40;2201.60
49052;DHT22;34866;48.670;18.260;2023-03-12T01:27:30;64.50;2201.60
49052;DHT22;34866;48.670;18.260;2023-03-12T01:29:56;64.70;2201.60
49052;DHT22;34866;48.670;18.260;2023-03-12T01:32:22;64.60;2201.60
49052;DHT22;34866;48.670;18.260;2023-03-12T01:34:48;64.60;2201.60
49052;DHT22;34866;48.670;18.260;2023-03-12T01:37:13;64.70;2201.60
49052;DHT22;34866;48.670;18.260;2023-03-12T01:39:39;64.70;2201.60
49052;DHT22;34866;48.670;18.260;2023-03-12T01:42:05;64.70;2201.60
49052;DHT22;34866;48.670;18.260;2023-03-12T01:44:51;64.60;2201.60
49052;DHT22;34866;48.670;18.260;2023-03-12T01:47:17;64.70;2201.60
49052;DHT22;34866;48.670;18.260;2023-03-12T01:49:44;64.70;2201.60
49052;DHT22;34866;48.670;18.260;2023-03-12T01:55:06;64.80;2201.60
49052;DHT22;34866;48.670;18.260;2023-03-12T01:57:37;64.80;2201.60
49052;DHT22;34866;48.670;18.260;2023-03-12T02:00:10;89.60;2201.60
49052;DHT22;34866;48.670;18.260;2023-03-12T02:02:38;89.60;2201.60
49052;DHT22;34866;48.670;18.260;2023-03-12T02:05:35;89.60;2201.60
49052;DHT22;34866;48.670;18.260;2023-03-12T02:08:11;89.60;2201.60
49052;DHT22;34866;48.670;18.260;2023-03-12T02:10:37;89.70;2176.00
49052;DHT22;34866;48.670;18.260;2023-03-12T02:13:03;89.70;2176.00
49052;DHT22;34866;48.670;18.260;2023-03-12T02:15:29;89.60;2201.60
49052;DHT22;34866;48.670;18.260;2023-03-12T02:17:55;64.90;2201.60
49052;DHT22;34866;48.670;18.260;2023-03-12T02:20:36;64.90;2201.60
49052;DHT22;34866;48.670;18.260;2023-03-12T02:23:07;89.70;2176.00
49052;DHT22;34866;48.670;18.260;2023-03-12T02:25:38;89.60;2201.60
49052;DHT22;34866;48.670;18.260;2023-03-12T02:28:08;89.60;2201.60
49052;DHT22;34866;48.670;18.260;2023-03-12T02:30:34;89.60;2201.60
49052;DHT22;34866;48.670;18.260;2023-03-12T02:33:04;89.70;2176.00
49052;DHT22;34866;48.670;18.260;2023-03-12T02:35:30;89.60;2201.60
49052;DHT22;34866;48.670;18.260;2023-03-12T02:37:56;64.90;2201.60
49052;DHT22;34866;48.670;18.260;2023-03-12T02:40:26;64.90;2201.60
49052;DHT22;34866;48.670;18.260;2023-03-12T02:42:54;89.70;2176.00
49052;DHT22;34866;48.670;18.260;2023-03-12T02:45:21;89.60;2201.60
49052;DHT22;34866;48.670;18.260;2023-03-12T02:47:47;89.70;2176.00
49052;DHT22;34866;48.670;18.260;2023-03-12T02:50:12;89.60;2201.60
49052;DHT22;34866;48.670;18.260;2023-03-12T02:52:38;89.80;2176.00
49052;DHT22;34866;48.670;18.260;2023-03-12T02:55:05;89.80;2176.00
49052;DHT22;34866;48.670;18.260;2023-03-12T02:57:32;90.10;2176.00
49052;DHT22;34866;48.670;18.260;2023-03-12T02:59:58;89.90;2176.00
49052;DHT22;34866;48.670;18.260;2023-03-12T03:02:24;89.80;2176.00
49052;DHT22;34866;48.670;18.260;2023-03-12T03:04:49;89.90;2176.00
49052;DHT22;34866;48.670;18.260;2023-03-12T03:07:15;89.90;2176.00
49052;DHT22;34866;48.670;18.260;2023-03-12T03:09:41;89.90;2176.00
49052;DHT22;34866;48.670;18.260;2023-03-12T03:12:06;89.70;2176.00
49052;DHT22;34866;48.670;18.260;2023-03-12T03:14:33;64.90;2201.60
49052;DHT22;34866;48.670;18.260;2023-03-12T03:17:00;89.60;2201.60
49052;DHT22;34866;48.670;18.260;2023-03-12T03:19:26;64.90;2201.60
49052;DHT22;34866;48.670;18.260;2023-03-12T03:21:52;64.80;2201.60
49052;DHT22;34866;48.670;18.260;2023-03-12T03:24:17;64.70;2201.60
49052;DHT22;34866;48.670;18.260;2023-03-12T03:26:43;64.50;2201.60
49052;DHT22;34866;48.670;18.260;2023-03-12T03:29:09;64.50;2201.60
49052;DHT22;34866;48.670;18.260;2023-03-12T03:31:34;64.50;2201.60
49052;DHT22;34866;48.670;18.260;2023-03-12T03:34:00;64.50;2201.60
49052;DHT22;34866;48.670;18.260;2023-03-12T03:36:26;64.40;2201.60
49052;DHT22;34866;48.670;18.260;2023-03-12T03:38:51;64.40;2201.60
49052;DHT22;34866;48.670;18.260;2023-03-12T03:41:18;64.60;2201.60
49052;DHT22;34866;48.670;18.260;2023-03-12T03:43:45;64.40;2201.60
49052;DHT22;34866;48.670;18.260;2023-03-12T03:46:11;64.60;2201.60
49052;DHT22;34866;48.670;18.260;2023-03-12T03:48:38;64.50;2201.60
49052;DHT22;34866;48.670;18.260;2023-03-12T03:51:05;64.60;2201.60
49052;DHT22;34866;48.670;18.260;2023-03-12T03:53:31;64.70;2201.60
49052;DHT22;34866;48.670;18.260;2023-03-12T03:55:57;64.30;2201.60
49052;DHT22;34866;48.670;18.260;2023-03-12T03:58:23;64.50;2201.60
49052;DHT22;34866;48.670;18.260;2023-03-12T04:00:49;64.50;2201.60
49052;DHT22;34866;48.670;18.260;2023-03-12T04:03:15;64.40;2201.60
49052;DHT22;34866;48.670;18.260;2023-03-12T04:05:40;64.40;2201.60
49052;DHT22;34866;48.670;18.260;2023-03-12T04:08:11;64.50;2201.60
49052;DHT22;34866;48.670;18.260;2023-03-12T04:10:37;64.40;2201.60
49052;DHT22;34866;48.670;18.260;2023-03-12T04:13:03;64.30;2201.60
49052;DHT22;34866;48.670;18.260;2023-03-12T04:15:28;64.50;2201.60
49052;DHT22;34866;48.670;18.260;2023-03-12T04:17:54;64.30;2201.60
49052;DHT22;34866;48.670;18.260;2023-03-12T04:20:20;64.30;2201.60
49052;DHT22;34866;48.670;18.260;2023-03-12T04:22:45;64.20;2201.60
49052;DHT22;34866;48.670;18.260;2023-03-12T04:25:11;64.30;2201.60
49052;DHT22;34866;48.670;18.260;2023-03-12T04:27:37;64.40;2201.60
49052;DHT22;34866;48.670;18.260;2023-03-12T04:30:03;64.40;2201.60
49052;DHT22;34866;48.670;18.260;2023-03-12T04:32:29;64.70;2201.60
49052;DHT22;34866;48.670;18.260;2023-03-12T04:34:54;64.50;2201.60
49052;DHT22;34866;48.670;18.260;2023-03-12T04:37:21;64.50;2201.60
49052;DHT22;34866;48.670;18.260;2023-03-12T04:39:47;64.50;2201.60
49052;DHT22;34866;48.670;18.260;2023-03-12T04:42:13;64.50;2201.60
49052;DHT22;34866;48.670;18.260;2023-03-12T04:44:42;64.40;2201.60
49052;DHT22;34866;48.670;18.260;2023-03-12T04:47:07;64.50;2201.60
49052;DHT22;34866;48.670;18.260;2023-03-12T04:49:33;64.60;2201.60
49052;DHT22;34866;48.670;18.260;2023-03-12T04:52:04;64.50;2201.60
49052;DHT22;34866;48.670;18.260;2023-03-12T04:54:30;64.60;2201.60
49052;DHT22;34866;48.670;18.260;2023-03-12T04:56:57;64.70;2201.60
49052;DHT22;34866;48.670;18.260;2023-03-12T04:59:23;64.80;2201.60
49052;DHT22;34866;48.670;18.260;2023-03-12T05:01:51;89.60;2201.60
49052;DHT22;34866;48.670;18.260;2023-03-12T05:04:20;89.60;2201.60
49052;DHT22;34866;48.670;18.260;2023-03-12T05:06:49;89.60;2201.60
49052;DHT22;34866;48.670;18.260;2023-03-12T05:09:15;89.60;2201.60
49052;DHT22;34866;48.670;18.260;2023-03-12T05:11:44;89.80;2176.00
49052;DHT22;34866;48.670;18.260;2023-03-12T05:14:14;89.80;2176.00
49052;DHT22;34866;48.670;18.260;2023-03-12T05:16:39;89.90;2176.00
49052;DHT22;34866;48.670;18.260;2023-03-12T05:19:05;89.80;2176.00
49052;DHT22;34866;48.670;18.260;2023-03-12T05:21:32;90.00;2176.00
49052;DHT22;34866;48.670;18.260;2023-03-12T05:23:59;90.00;2176.00
49052;DHT22;34866;48.670;18.260;2023-03-12T05:26:30;90.00;2176.00
49052;DHT22;34866;48.670;18.260;2023-03-12T05:28:57;90.00;2176.00
49052;DHT22;34866;48.670;18.260;2023-03-12T05:31:24;90.00;2176.00
49052;DHT22;34866;48.670;18.260;2023-03-12T05:33:51;90.00;2176.00
49052;DHT22;34866;48.670;18.260;2023-03-12T05:36:20;90.00;2176.00
49052;DHT22;34866;48.670;18.260;2023-03-12T05:38:47;89.90;2176.00
49052;DHT22;34866;48.670;18.260;2023-03-12T05:41:22;90.00;2176.00
49052;DHT22;34866;48.670;18.260;2023-03-12T05:43:48;89.90;2176.00
49052;DHT22;34866;48.670;18.260;2023-03-12T05:46:14;89.80;2176.00
49052;DHT22;34866;48.670;18.260;2023-03-12T05:48:40;89.90;2176.00
49052;DHT22;34866;48.670;18.260;2023-03-12T05:51:05;89.90;2176.00
49052;DHT22;34866;48.670;18.260;2023-03-12T05:53:33;89.90;2176.00
49052;DHT22;34866;48.670;18.260;2023-03-12T05:56:07;89.60;2201.60
49052;DHT22;34866;48.670;18.260;2023-03-12T05:58:34;89.80;2176.00
49052;DHT22;34866;48.670;18.260;2023-03-12T06:01:00;64.70;2201.60
49052;DHT22;34866;48.670;18.260;2023-03-12T06:03:29;64.40;2201.60
49052;DHT22;34866;48.670;18.260;2023-03-12T06:05:54;64.30;2201.60
49052;DHT22;34866;48.670;18.260;2023-03-12T06:08:22;39.10;2201.60
49052;DHT22;34866;48.670;18.260;2023-03-12T06:10:52;13.10;2201.60
49052;DHT22;34866;48.670;18.260;2023-03-12T06:13:20;13.10;1612.80
49052;DHT22;34866;48.670;18.260;2023-03-12T06:15:47;13.20;1536.00
49052;DHT22;34866;48.670;18.260;2023-03-12T06:18:13;13.20;1664.00
49052;DHT22;34866;48.670;18.260;2023-03-12T06:20:38;13.30;1126.40
49052;DHT22;34866;48.670;18.260;2023-03-12T06:23:04;13.10;1331.20
49052;DHT22;34866;48.670;18.260;2023-03-12T06:25:30;13.00;1254.40
49052;DHT22;34866;48.670;18.260;2023-03-12T06:27:57;0.40;691.20
49052;DHT22;34866;48.670;18.260;2023-03-12T06:30:25;77.00;6476.80
49052;DHT22;34866;48.670;18.260;2023-03-12T06:32:52;77.40;6476.80
49052;DHT22;34866;48.670;18.260;2023-03-12T06:35:18;51.60;6476.80
49052;DHT22;34866;48.670;18.260;2023-03-12T06:37:44;26.50;6451.20
49052;DHT22;34866;48.670;18.260;2023-03-12T06:40:10;51.50;6476.80
49052;DHT22;34866;48.670;18.260;2023-03-12T06:42:38;26.50;6451.20
49052;DHT22;34866;48.670;18.260;2023-03-12T06:45:04;51.90;6476.80
49052;DHT22;34866;48.670;18.260;2023-03-12T06:47:30;51.70;6476.80
49052;DHT22;34866;48.670;18.260;2023-03-12T06:49:57;52.00;6476.80
49052;DHT22;34866;48.670;18.260;2023-03-12T06:52:23;51.20;6476.80
49052;DHT22;34866;48.670;18.260;2023-03-12T06:54:49;51.60;6476.80
49052;DHT22;34866;48.670;18.260;2023-03-12T06:57:14;51.90;6476.80
49052;DHT22;34866;48.670;18.260;2023-03-12T06:59:41;26.40;6451.20
49052;DHT22;34866;48.670;18.260;2023-03-12T07:02:09;26.40;6451.20
49052;DHT22;34866;48.670;18.260;2023-03-12T07:04:35;51.40;6476.80
49052;DHT22;34866;48.670;18.260;2023-03-12T07:07:01;51.90;6476.80
49052;DHT22;34866;48.670;18.260;2023-03-12T07:09:27;51.40;6476.80
49052;DHT22;34866;48.670;18.260;2023-03-12T07:11:53;51.60;6476.80
49052;DHT22;34866;48.670;18.260;2023-03-12T07:14:19;51.20;6476.80
49052;DHT22;34866;48.670;18.260;2023-03-12T07:16:46;51.20;6476.80
49052;DHT22;34866;48.670;18.260;2023-03-12T07:19:12;51.80;6476.80
49052;DHT22;34866;48.670;18.260;2023-03-12T07:21:37;76.90;6476.80
49052;DHT22;34866;48.670;18.260;2023-03-12T07:24:04;52.00;6476.80
49052;DHT22;34866;48.670;18.260;2023-03-12T07:26:33;77.10;6476.80
49052;DHT22;34866;48.670;18.260;2023-03-12T07:29:00;77.00;6476.80
49052;DHT22;34866;48.670;18.260;2023-03-12T07:31:27;77.20;6476.80
49052;DHT22;34866;48.670;18.260;2023-03-12T07:33:52;77.70;6476.80
49052;DHT22;34866;48.670;18.260;2023-03-12T07:36:21;102.60;6476.80
49052;DHT22;34866;48.670;18.260;2023-03-12T07:38:48;128.70;6502.40
49052;DHT22;34866;48.670;18.260;2023-03-12T07:41:14;153.70;6502.40
49052;DHT22;34866;48.670;18.260;2023-03-12T07:43:39;154.30;6502.40
49052;DHT22;34866;48.670;18.260;2023-03-12T07:46:05;154.40;6502.40
49052;DHT22;34866;48.670;18.260;2023-03-12T07:48:31;179.80;6502.40
49052;DHT22;34866;48.670;18.260;2023-03-12T07:50:56;180.10;6502.40
49052;DHT22;34866;48.670;18.260;2023-03-12T07:53:22;205.70;6502.40
49052;DHT22;34866;48.670;18.260;2023-03-12T07:55:48;205.40;6502.40
49052;DHT22;34866;48.670;18.260;2023-03-12T07:58:14;179.20;6502.40
49052;DHT22;34866;48.670;18.260;2023-03-12T08:00:40;230.90;6502.40
49052;DHT22;34866;48.670;18.260;2023-03-12T08:03:06;204.90;6502.40
49052;DHT22;34866;48.670;18.260;2023-03-12T08:05:31;205.20;6502.40
49052;DHT22;34866;48.670;18.260;2023-03-12T08:07:57;180.10;6502.40
49052;DHT22;34866;48.670;18.260;2023-03-12T08:10:23;231.00;6502.40
49052;DHT22;34866;48.670;18.260;2023-03-12T08:12:49;180.00;6502.40
49052;DHT22;34866;48.670;18.260;2023-03-12T08:15:15;230.60;6502.40
49052;DHT22;34866;48.670;18.260;2023-03-12T08:17:41;128.70;6502.40
49052;DHT22;34866;48.670;18.260;2023-03-12T08:20:08;128.70;6502.40
49052;DHT22;34866;48.670;18.260;2023-03-12T08:22:35;128.40;6502.40
49052;DHT22;34866;48.670;18.260;2023-03-12T08:25:02;128.90;6502.40
49052;DHT22;34866;48.670;18.260;2023-03-12T08:27:28;128.70;6502.40
49052;DHT22;34866;48.670;18.260;2023-03-12T08:29:54;128.20;6502.40
49052;DHT22;34866;48.670;18.260;2023-03-12T08:32:20;103.10;6476.80
49052;DHT22;34866;48.670;18.260;2023-03-12T08:34:46;103.30;6476.80
49052;DHT22;34866;48.670;18.260;2023-03-12T08:37:15;103.30;6476.80
49052;DHT22;34866;48.670;18.260;2023-03-12T08:39:40;128.20;6502.40
49052;DHT22;34866;48.670;18.260;2023-03-12T08:42:06;102.60;6476.80
49052;DHT22;34866;48.670;18.260;2023-03-12T08:44:32;128.00;6502.40
49052;DHT22;34866;48.670;18.260;2023-03-12T08:46:58;128.10;6502.40
49052;DHT22;34866;48.670;18.260;2023-03-12T08:49:24;128.00;6502.40
49052;DHT22;34866;48.670;18.260;2023-03-12T08:51:50;128.60;6502.40
49052;DHT22;34866;48.670;18.260;2023-03-12T08:54:17;128.80;6502.40
49052;DHT22;34866;48.670;18.260;2023-03-12T08:56:47;128.90;6502.40
49052;DHT22;34866;48.670;18.260;2023-03-12T08:59:14;128.30;6502.40
49052;DHT22;34866;48.670;18.260;2023-03-12T09:01:43;102.90;6476.80
49052;DHT22;34866;48.670;18.260;2023-03-12T09:04:09;128.30;6502.40
49052;DHT22;34866;48.670;18.260;2023-03-12T09:06:35;128.70;6502.40
49052;DHT22;34866;48.670;18.260;2023-03-12T09:09:03;128.50;6502.40
49052;DHT22;34866;48.670;18.260;2023-03-12T09:11:30;128.50;6502.40
49052;DHT22;34866;48.670;18.260;2023-03-12T09:13:58;128.60;6502.40
49052;DHT22;34866;48.670;18.260;2023-03-12T09:16:24;154.10;6502.40
49052;DHT22;34866;48.670;18.260;2023-03-12T09:18:51;154.10;6502.40
49052;DHT22;34866;48.670;18.260;2023-03-12T09:21:17;128.90;6502.40
49052;DHT22;34866;48.670;18.260;2023-03-12T09:23:42;128.90;6502.40
49052;DHT22;34866;48.670;18.260;2023-03-12T09:26:12;154.10;6502.40
49052;DHT22;34866;48.670;18.260;2023-03-12T09:28:37;154.40;6502.40
49052;DHT22;34866;48.670;18.260;2023-03-12T09:31:04;179.20;6502.40
49052;DHT22;34866;48.670;18.260;2023-03-12T09:33:32;154.20;6502.40
49052;DHT22;34866;48.670;18.260;2023-03-12T09:36:01;154.30;6502.40
49052;DHT22;34866;48.670;18.260;2023-03-12T09:38:27;179.60;6502.40
49052;DHT22;34866;48.670;18.260;2023-03-12T09:40:53;179.40;6502.40
49052;DHT22;34866;48.670;18.260;2023-03-12T09:45:49;179.60;6502.40
49052;DHT22;34866;48.670;18.260;2023-03-12T09:48:28;180.10;6502.40
49052;DHT22;34866;48.670;18.260;2023-03-12T09:51:05;205.20;6502.40
49052;DHT22;34866;48.670;18.260;2023-03-12T09:53:39;204.80;6502.40
49052;DHT22;34866;48.670;18.260;2023-03-12T09:56:16;205.50;6502.40
49052;DHT22;34866;48.670;18.260;2023-03-12T09:58:43;205.20;6502.40
49052;DHT22;34866;48.670;18.260;2023-03-12T10:06:52;282.20;6528.00
49052;DHT22;34866;48.670;18.260;2023-03-12T10:12:33;282.30;6528.00
49052;DHT22;34866;48.670;18.260;2023-03-12T10:28:08;256.00;6502.40
49052;DHT22;34866;48.670;18.260;2023-03-12T10:30:36;358.80;537.60
49052;DHT22;34866;48.670;18.260;2023-03-12T10:33:10;282.30;6528.00
49052;DHT22;34866;48.670;18.260;2023-03-12T10:35:38;231.20;6502.40
49052;DHT22;34866;48.670;18.260;2023-03-12T10:38:10;333.40;588.80
49052;DHT22;34866;48.670;18.260;2023-03-12T10:40:39;358.90;563.20
49052;DHT22;34866;48.670;18.260;2023-03-12T10:43:05;384.00;128.00
49052;DHT22;34866;48.670;18.260;2023-03-12T10:48:24;307.50;588.80
49052;DHT22;34866;48.670;18.260;2023-03-12T10:51:19;435.40;537.60
49052;DHT22;34866;48.670;18.260;2023-03-12T10:53:46;461.20;358.40
49052;DHT22;34866;48.670;18.260;2023-03-12T10:56:19;460.90;384.00
49052;DHT22;34866;48.670;18.260;2023-03-12T10:58:47;486.90;358.40
49052;DHT22;34866;48.670;18.260;2023-03-12T11:01:19;461.10;358.40
49052;DHT22;34866;48.670;18.260;2023-03-12T11:03:46;435.90;128.00
49052;DHT22;34866;48.670;18.260;2023-03-12T11:06:27;384.20;332.80
49052;DHT22;34866;48.670;18.260;2023-03-12T11:11:37;358.60;614.40
49052;DHT22;34866;48.670;18.260;2023-03-12T11:14:26;410.00;230.40
49052;DHT22;34866;48.670;18.260;2023-03-12T11:16:52;409.80;460.80
49052;DHT22;34866;48.670;18.260;2023-03-12T11:19:32;435.30;332.80
49052;DHT22;34866;48.670;18.260;2023-03-12T11:22:07;461.40;358.40
49052;DHT22;34866;48.670;18.260;2023-03-12T11:24:57;435.40;128.00
49052;DHT22;34866;48.670;18.260;2023-03-12T11:27:37;359.20;512.00
49052;DHT22;34866;48.670;18.260;2023-03-12T11:30:06;461.30;204.80
49052;DHT22;34866;48.670;18.260;2023-03-12T11:32:41;410.10;128.00
49052;DHT22;34866;48.670;18.260;2023-03-12T11:35:17;358.40;537.60
49052;DHT22;34866;48.670;18.260;2023-03-12T11:38:16;409.90;128.00
49052;DHT22;34866;48.670;18.260;2023-03-12T11:41:13;512.30;460.80
49052;DHT22;34866;48.670;18.260;2023-03-12T12:01:23;358.90;128.00
49052;DHT22;34866;48.670;18.260;2023-03-12T12:36:13;230.40;6502.40
49052;DHT22;34866;48.670;18.260;2023-03-12T12:38:43;230.70;563.20
49052;DHT22;34866;48.670;18.260;2023-03-12T12:41:52;205.70;6528.00
49052;DHT22;34866;48.670;18.260;2023-03-12T12:44:21;231.30;6502.40
49052;DHT22;34866;48.670;18.260;2023-03-12T12:46:52;231.10;6502.40
49052;DHT22;34866;48.670;18.260;2023-03-12T12:49:53;231.10;512.00
49052;DHT22;34866;48.670;18.260;2023-03-12T12:52:22;205.70;563.20
49052;DHT22;34866;48.670;18.260;2023-03-12T12:54:54;230.70;512.00
49052;DHT22;34866;48.670;18.260;2023-03-12T12:57:43;230.40;128.00
49052;DHT22;34866;48.670;18.260;2023-03-12T13:00:48;230.60;332.80
49052;DHT22;34866;48.670;18.260;2023-03-12T13:03:18;230.90;153.60
49052;DHT22;34866;48.670;18.260;2023-03-12T13:06:00;205.60;153.60
49052;DHT22;34866;48.670;18.260;2023-03-12T13:08:57;230.50;332.80
49052;DHT22;34866;48.670;18.260;2023-03-12T13:11:29;205.70;256.00
49052;DHT22;34866;48.670;18.260;2023-03-12T13:16:34;205.70;6502.40
49052;DHT22;34866;48.670;18.260;2023-03-12T13:22:05;205.70;384.00
49052;DHT22;34866;48.670;18.260;2023-03-12T13:27:22;205.40;128.00
49052;DHT22;34866;48.670;18.260;2023-03-12T13:29:48;205.60;281.60
49052;DHT22;34866;48.670;18.260;2023-03-12T13:34:58;205.50;128.00
49052;DHT22;34866;48.670;18.260;2023-03-12T13:43:08;205.60;128.00
49052;DHT22;34866;48.670;18.260;2023-03-12T13:48:47;205.40;256.00
49052;DHT22;34866;48.670;18.260;2023-03-12T13:51:20;205.60;128.00
49052;DHT22;34866;48.670;18.260;2023-03-12T13:53:50;205.50;332.80
49052;DHT22;34866;48.670;18.260;2023-03-12T13:56:19;205.40;256.00
49052;DHT22;34866;48.670;18.260;2023-03-12T13:59:01;205.60;332.80
49052;DHT22;34866;48.670;18.260;2023-03-12T14:01:30;205.70;204.80
49052;DHT22;34866;48.670;18.260;2023-03-12T14:04:03;205.50;6502.40
49052;DHT22;34866;48.670;18.260;2023-03-12T14:06:45;205.60;358.40
49052;DHT22;34866;48.670;18.260;2023-03-12T14:12:24;230.40;332.80
49052;DHT22;34866;48.670;18.260;2023-03-12T14:15:00;205.50;128.00
49052;DHT22;34866;48.670;18.260;2023-03-12T14:17:31;205.30;281.60
49052;DHT22;34866;48.670;18.260;2023-03-12T14:20:04;205.40;6502.40
49052;DHT22;34866;48.670;18.260;2023-03-12T14:22:38;205.40;332.80
49052;DHT22;34866;48.670;18.260;2023-03-12T14:25:13;205.60;128.00
49052;DHT22;34866;48.670;18.260;2023-03-12T14:27:44;205.40;128.00
49052;DHT22;34866;48.670;18.260;2023-03-12T14:30:24;230.40;128.00
49052;DHT22;34866;48.670;18.260;2023-03-12T14:32:56;230.40;332.80
49052;DHT22;34866;48.670;18.260;2023-03-12T14:35:45;230.60;307.20
49052;DHT22;34866;48.670;18.260;2023-03-12T14:41:11;230.40;128.00
49052;DHT22;34866;48.670;18.260;2023-03-12T14:43:40;230.50;6502.40
49052;DHT22;34866;48.670;18.260;2023-03-12T14:46:16;230.50;332.80
49052;DHT22;34866;48.670;18.260;2023-03-12T14:48:42;205.40;307.20
49052;DHT22;34866;48.670;18.260;2023-03-12T14:51:20;205.40;281.60
49052;DHT22;34866;48.670;18.260;2023-03-12T14:53:46;205.60;307.20
49052;DHT22;34866;48.670;18.260;2023-03-12T14:59:00;205.00;358.40
49052;DHT22;34866;48.670;18.260;2023-03-12T15:01:29;180.10;153.60
49052;DHT22;34866;48.670;18.260;2023-03-12T15:04:05;204.80;204.80
49052;DHT22;34866;48.670;18.260;2023-03-12T15:07:11;204.90;332.80
49052;DHT22;34866;48.670;18.260;2023-03-12T15:09:42;204.80;358.40
49052;DHT22;34866;48.670;18.260;2023-03-12T15:12:36;180.00;307.20
49052;DHT22;34866;48.670;18.260;2023-03-12T15:17:52;180.10;256.00
49052;DHT22;34866;48.670;18.260;2023-03-12T15:20:19;179.70;358.40
49052;DHT22;34866;48.670;18.260;2023-03-12T15:22:46;179.40;281.60
49052;DHT22;34866;48.670;18.260;2023-03-12T15:25:31;179.60;128.00
49052;DHT22;34866;48.670;18.260;2023-03-12T15:30:34;179.60;230.40
49052;DHT22;34866;48.670;18.260;2023-03-12T15:33:12;179.50;332.80
49052;DHT22;34866;48.670;18.260;2023-03-12T15:36:05;179.60;153.60
49052;DHT22;34866;48.670;18.260;2023-03-12T15:41:49;179.60;537.60
49052;DHT22;34866;48.670;18.260;2023-03-12T15:44:27;179.30;6502.40
49052;DHT22;34866;48.670;18.260;2023-03-12T15:47:16;179.20;537.60
49052;DHT22;34866;48.670;18.260;2023-03-12T15:49:41;154.50;6502.40
49052;DHT22;34866;48.670;18.260;2023-03-12T15:55:03;154.50;307.20
49052;DHT22;34866;48.670;18.260;2023-03-12T15:57:30;154.30;512.00
49052;DHT22;34866;48.670;18.260;2023-03-12T16:02:59;154.20;6502.40
49052;DHT22;34866;48.670;18.260;2023-03-12T16:05:36;154.10;537.60
49052;DHT22;34866;48.670;18.260;2023-03-12T16:08:34;154.20;6502.40
49052;DHT22;34866;48.670;18.260;2023-03-12T16:11:00;154.20;6502.40
49052;DHT22;34866;48.670;18.260;2023-03-12T16:13:28;154.10;6502.40
49052;DHT22;34866;48.670;18.260;2023-03-12T16:15:56;154.00;6502.40
49052;DHT22;34866;48.670;18.260;2023-03-12T16:18:22;154.00;6502.40
49052;DHT22;34866;48.670;18.260;2023-03-12T16:20:50;153.90;6502.40
49052;DHT22;34866;48.670;18.260;2023-03-12T16:23:16;153.90;563.20
49052;DHT22;34866;48.670;18.260;2023-03-12T16:25:45;153.80;6502.40
49052;DHT22;34866;48.670;18.260;2023-03-12T16:28:14;153.80;128.00
49052;DHT22;34866;48.670;18.260;2023-03-12T16:30:41;153.80;6502.40
49052;DHT22;34866;48.670;18.260;2023-03-12T16:33:07;153.70;384.00
49052;DHT22;34866;48.670;18.260;2023-03-12T16:35:33;153.70;486.40
49052;DHT22;34866;48.670;18.260;2023-03-12T16:37:59;153.60;512.00
49052;DHT22;34866;48.670;18.260;2023-03-12T16:40:27;128.80;153.60
49052;DHT22;34866;48.670;18.260;2023-03-12T16:42:54;153.60;128.00
49052;DHT22;34866;48.670;18.260;2023-03-12T16:45:21;128.90;128.00
49052;DHT22;34866;48.670;18.260;2023-03-12T16:47:52;128.70;486.40
49052;DHT22;34866;48.670;18.260;2023-03-12T16:50:21;128.60;6502.40
49052;DHT22;34866;48.670;18.260;2023-03-12T16:52:50;128.60;486.40
49052;DHT22;34866;48.670;18.260;2023-03-12T16:55:20;128.40;512.00
49052;DHT22;34866;48.670;18.260;2023-03-12T16:57:50;128.30;6502.40
49052;DHT22;34866;48.670;18.260;2023-03-12T17:00:24;128.30;6502.40
49052;DHT22;34866;48.670;18.260;2023-03-12T17:02:52;128.30;6502.40
49052;DHT22;34866;48.670;18.260;2023-03-12T17:05:25;128.70;6502.40
49052;DHT22;34866;48.670;18.260;2023-03-12T17:07:51;128.20;6502.40